createdAt,value
2019-03-10T00:00:55.763Z,1.57
2019-03-10T00:03:25.844Z,1.80
2019-03-10T00:05:56.004Z,1.63
2019-03-10T00:08:25.860Z,2.30
2019-03-10T00:10:56.495Z,2.60
2019-03-10T00:13:26.911Z,2.27
2019-03-10T00:15:56.751Z,1.60
2019-03-10T00:18:26.423Z,2.03
2019-03-10T00:20:56.164Z,1.67
2019-03-10T00:23:25.864Z,2.20
2019-03-10T00:25:55.819Z,1.80
2019-03-10T00:28:31.439Z,2.30
2019-03-10T00:31:01.203Z,2.67
2019-03-10T00:33:32.124Z,1.73
2019-03-10T00:36:01.964Z,1.90
2019-03-10T00:38:50.463Z,2.67
2019-03-10T00:41:35.267Z,1.90
2019-03-10T00:44:29.295Z,1.80
2019-03-10T00:47:08.008Z,2.03
2019-03-10T00:49:47.195Z,1.43
2019-03-10T00:52:25.646Z,1.80
2019-03-10T00:54:55.605Z,1.30
2019-03-10T00:57:25.720Z,1.40
2019-03-10T00:59:55.816Z,1.60
2019-03-10T01:02:25.716Z,2.07
2019-03-10T01:04:57.596Z,1.60
2019-03-10T01:07:27.767Z,1.27
2019-03-10T01:09:57.884Z,1.40
2019-03-10T01:12:30.831Z,1.30
2019-03-10T01:15:01.897Z,1.30
2019-03-10T01:17:34.531Z,1.30
2019-03-10T01:20:07.759Z,1.40
2019-03-10T01:22:38.707Z,2.20
2019-03-10T01:25:12.283Z,1.90
2019-03-10T01:27:42.137Z,1.73
2019-03-10T01:30:14.363Z,1.53
2019-03-10T01:33:10.927Z,1.40
2019-03-10T01:35:42.586Z,1.83
2019-03-10T01:38:13.115Z,1.57
2019-03-10T01:40:48.683Z,1.50
2019-03-10T01:43:21.246Z,1.20
2019-03-10T01:45:58.275Z,1.40
2019-03-10T01:48:28.385Z,1.30
2019-03-10T01:50:58.487Z,1.00
2019-03-10T01:53:28.363Z,2.17
2019-03-10T01:56:00.326Z,1.57
2019-03-10T01:58:32.345Z,1.20
2019-03-10T02:01:02.209Z,1.30
2019-03-10T02:03:31.891Z,1.47
2019-03-10T02:06:02.559Z,1.00
2019-03-10T02:08:32.280Z,1.80
2019-03-10T02:11:02.287Z,0.80
2019-03-10T02:13:48.759Z,1.27
2019-03-10T02:16:18.283Z,1.17
2019-03-10T02:18:49.231Z,1.67
2019-03-10T02:21:21.671Z,1.40
2019-03-10T02:23:51.837Z,1.20
2019-03-10T02:26:21.675Z,1.30
2019-03-10T02:28:51.663Z,1.07
2019-03-10T02:31:22.476Z,1.30
2019-03-10T02:33:53.629Z,0.90
2019-03-10T02:36:25.385Z,1.60
2019-03-10T02:38:55.336Z,1.63
2019-03-10T02:41:25.425Z,1.30
2019-03-10T02:43:57.183Z,1.37
2019-03-10T02:46:28.037Z,1.20
2019-03-10T02:49:00.137Z,1.43
2019-03-10T02:51:29.983Z,1.50
2019-03-10T02:54:00.612Z,1.10
2019-03-10T02:56:30.316Z,1.43
2019-03-10T02:59:01.265Z,1.30
2019-03-10T03:01:31.406Z,1.70
2019-03-10T03:04:03.247Z,1.40
2019-03-10T03:06:40.154Z,1.90
2019-03-10T03:09:10.860Z,1.70
2019-03-10T03:11:52.838Z,2.10
2019-03-10T03:14:23.997Z,1.00
2019-03-10T03:16:53.848Z,1.50
2019-03-10T03:19:29.696Z,1.97
2019-03-10T03:22:00.738Z,1.30
2019-03-10T03:24:30.577Z,1.00
2019-03-10T03:27:02.741Z,1.43
2019-03-10T03:29:33.548Z,1.53
2019-03-10T03:32:07.365Z,1.30
2019-03-10T03:34:37.196Z,1.33
2019-03-10T03:37:10.007Z,1.67
2019-03-10T03:39:39.978Z,1.27
2019-03-10T03:42:09.667Z,1.20
2019-03-10T03:44:40.393Z,1.40
2019-03-10T03:47:12.335Z,1.30
2019-03-10T03:49:43.200Z,1.27
2019-03-10T03:52:16.428Z,1.20
2019-03-10T03:54:46.511Z,1.27
2019-03-10T03:57:16.629Z,1.43
2019-03-10T03:59:50.850Z,1.20
2019-03-10T04:02:24.115Z,1.50
2019-03-10T04:04:55.208Z,1.13
2019-03-10T04:07:26.136Z,1.30
2019-03-10T04:09:56.009Z,1.60
2019-03-10T04:12:27.648Z,1.60
2019-03-10T04:14:58.561Z,0.97
2019-03-10T04:17:32.604Z,1.10
2019-03-10T04:20:02.336Z,1.00
2019-03-10T04:22:34.235Z,0.93
2019-03-10T04:25:06.513Z,1.10
2019-03-10T04:27:36.606Z,1.00
2019-03-10T04:30:09.861Z,1.13
2019-03-10T04:32:42.777Z,1.57
2019-03-10T04:35:12.895Z,1.77
2019-03-10T04:37:45.969Z,1.10
2019-03-10T04:40:16.071Z,1.93
2019-03-10T04:42:46.160Z,1.07
2019-03-10T04:45:18.863Z,0.97
2019-03-10T04:47:58.587Z,1.13
2019-03-10T04:50:28.571Z,1.27
2019-03-10T04:52:59.367Z,1.20
2019-03-10T04:55:47.195Z,1.40
2019-03-10T04:58:17.483Z,1.30
2019-03-10T05:00:50.007Z,1.00
2019-03-10T05:03:20.091Z,1.30
2019-03-10T05:05:49.944Z,1.50
2019-03-10T05:08:20.880Z,1.70
2019-03-10T05:10:56.951Z,1.03
2019-03-10T05:13:28.752Z,1.30
2019-03-10T05:15:58.699Z,1.00
2019-03-10T05:18:29.752Z,0.90
2019-03-10T05:21:00.547Z,1.57
2019-03-10T05:23:31.794Z,1.00
2019-03-10T05:26:01.655Z,1.70
2019-03-10T05:28:34.303Z,1.30
2019-03-10T05:31:05.068Z,1.43
2019-03-10T05:33:34.792Z,1.40
2019-03-10T05:36:05.771Z,1.00
2019-03-10T05:38:35.877Z,1.03
2019-03-10T05:41:06.055Z,1.33
2019-03-10T05:43:38.112Z,1.10
2019-03-10T05:46:08.203Z,1.60
2019-03-10T05:48:38.297Z,1.20
2019-03-10T05:51:08.389Z,2.20
2019-03-10T05:53:40.219Z,1.23
2019-03-10T05:56:10.899Z,1.20
2019-03-10T05:58:41.819Z,1.20
2019-03-10T06:01:12.677Z,0.90
2019-03-10T06:03:42.611Z,1.50
2019-03-10T06:06:12.448Z,1.10
2019-03-10T06:08:42.397Z,1.50
2019-03-10T06:11:12.283Z,1.40
2019-03-10T06:13:43.948Z,1.60
2019-03-10T06:16:15.971Z,1.10
2019-03-10T06:18:52.261Z,1.40
2019-03-10T06:21:23.083Z,1.50
2019-03-10T06:23:52.795Z,1.73
2019-03-10T06:26:22.759Z,1.40
2019-03-10T06:28:54.536Z,1.83
2019-03-10T06:31:24.483Z,1.40
2019-03-10T06:33:57.027Z,1.43
2019-03-10T06:36:28.750Z,1.67
2019-03-10T06:38:58.705Z,1.57
2019-03-10T06:41:30.802Z,1.60
2019-03-10T06:44:09.899Z,1.90
2019-03-10T06:46:43.708Z,1.70
2019-03-10T06:49:13.683Z,1.77
2019-03-10T06:51:45.723Z,1.83
2019-03-10T06:54:17.785Z,1.60
2019-03-10T06:56:47.881Z,1.30
2019-03-10T06:59:17.987Z,1.50
2019-03-10T07:01:48.098Z,1.50
2019-03-10T07:04:18.931Z,1.40
2019-03-10T07:06:48.885Z,1.80
2019-03-10T07:09:19.932Z,1.80
2019-03-10T07:11:50.995Z,1.67
2019-03-10T07:14:21.759Z,1.80
2019-03-10T07:16:51.724Z,1.50
2019-03-10T07:19:21.837Z,1.77
2019-03-10T07:21:54.782Z,1.50
2019-03-10T07:24:24.999Z,1.43
2019-03-10T07:27:13.481Z,1.37
2019-03-10T07:29:45.234Z,1.57
2019-03-10T07:32:18.938Z,1.50
2019-03-10T07:35:14.167Z,2.00
2019-03-10T07:37:57.881Z,1.90
2019-03-10T07:40:47.909Z,1.47
2019-03-10T07:43:19.653Z,1.07
2019-03-10T07:45:53.805Z,1.40
2019-03-10T07:48:25.553Z,1.23
2019-03-10T07:51:01.095Z,1.50
2019-03-10T07:53:39.345Z,1.27
2019-03-10T07:56:33.037Z,1.03
2019-03-10T07:59:11.668Z,1.37
2019-03-10T08:01:44.331Z,1.47
2019-03-10T08:04:26.509Z,1.30
2019-03-10T08:06:58.468Z,1.60
2019-03-10T08:09:33.864Z,1.47
2019-03-10T08:12:11.413Z,1.43
2019-03-10T08:15:13.755Z,1.10
2019-03-10T08:17:45.497Z,1.23
2019-03-10T08:20:16.980Z,0.90
2019-03-10T08:22:48.592Z,1.20
2019-03-10T08:25:23.119Z,1.10
2019-03-10T08:28:01.551Z,1.80
2019-03-10T08:30:46.991Z,0.80
2019-03-10T08:33:30.777Z,0.90
2019-03-10T08:36:09.277Z,0.90
2019-03-10T08:38:43.669Z,1.20
2019-03-10T08:41:18.698Z,0.93
2019-03-10T08:44:16.031Z,0.80
2019-03-10T08:46:52.311Z,0.90
2019-03-10T08:49:44.628Z,1.10
2019-03-10T08:52:16.257Z,0.90
2019-03-10T08:54:51.093Z,0.93
2019-03-10T08:57:31.855Z,0.90
2019-03-10T09:00:03.656Z,1.30
2019-03-10T09:02:39.207Z,1.33
2019-03-10T09:05:12.922Z,0.93
2019-03-10T09:07:54.483Z,0.90
2019-03-10T09:10:28.641Z,1.20
2019-03-10T09:13:02.991Z,1.03
2019-03-10T09:15:42.681Z,0.73
2019-03-10T09:18:34.827Z,1.00
2019-03-10T09:21:22.572Z,1.30
2019-03-10T09:23:56.263Z,1.90
2019-03-10T09:26:44.813Z,3.40
2019-03-10T09:29:24.991Z,1.33
2019-03-10T09:32:02.809Z,1.30
2019-03-10T09:34:44.483Z,1.33
2019-03-10T09:37:16.207Z,1.40
2019-03-10T09:39:50.458Z,1.20
2019-03-10T09:42:22.073Z,2.40
2019-03-10T09:44:53.744Z,1.33
2019-03-10T09:47:25.455Z,1.53
2019-03-10T09:49:59.335Z,3.20
2019-03-10T09:52:48.663Z,1.33
2019-03-10T09:55:26.824Z,1.97
2019-03-10T09:58:03.316Z,7.20
2019-03-10T10:00:35.999Z,1.30
2019-03-10T10:03:16.323Z,21.07
2019-03-10T10:05:47.927Z,24.90
2019-03-10T10:08:31.157Z,13.70
2019-03-10T10:11:05.615Z,4.83
2019-03-10T10:13:38.899Z,1.60
2019-03-10T10:16:21.192Z,2.17
2019-03-10T10:18:52.932Z,0.90
2019-03-10T10:21:30.144Z,1.57
2019-03-10T10:24:17.819Z,0.97
2019-03-10T10:26:54.991Z,1.07
2019-03-10T10:29:26.609Z,1.07
2019-03-10T10:32:01.345Z,1.20
2019-03-10T10:34:48.721Z,0.90
2019-03-10T10:37:21.462Z,1.10
2019-03-10T10:39:53.019Z,0.83
2019-03-10T10:42:36.813Z,0.80
2019-03-10T10:45:25.043Z,0.70
2019-03-10T10:48:11.560Z,3.60
2019-03-10T10:51:02.896Z,1.33
2019-03-10T10:53:43.558Z,0.93
2019-03-10T10:56:17.245Z,0.60
2019-03-10T10:59:08.638Z,2.00
2019-03-10T11:01:39.549Z,3.33
2019-03-10T11:04:22.990Z,15.50
2019-03-10T11:06:54.584Z,1.50
2019-03-10T11:09:28.269Z,0.70
2019-03-10T11:12:01.012Z,0.50
2019-03-10T11:14:48.617Z,0.50
2019-03-10T11:17:20.234Z,0.60
2019-03-10T11:19:52.251Z,0.50
2019-03-10T11:22:35.311Z,1.63
2019-03-10T11:25:14.547Z,0.70
2019-03-10T11:28:03.875Z,0.80
2019-03-10T11:30:37.906Z,0.60
2019-03-10T11:33:18.215Z,0.60
2019-03-10T11:35:53.650Z,0.80
2019-03-10T11:38:29.224Z,0.50
2019-03-10T11:41:06.669Z,0.57
2019-03-10T11:43:59.259Z,0.50
2019-03-10T11:46:46.914Z,0.60
2019-03-10T11:49:34.728Z,0.50
2019-03-10T11:52:13.646Z,1.37
2019-03-10T11:54:55.275Z,0.70
2019-03-10T11:57:27.003Z,0.70
2019-03-10T12:00:01.496Z,0.50
2019-03-10T12:02:49.515Z,0.60
2019-03-10T12:05:24.419Z,0.60
2019-03-10T12:07:58.744Z,0.60
2019-03-10T12:10:34.438Z,0.50
2019-03-10T12:13:05.425Z,0.50
2019-03-10T12:15:36.397Z,0.60
2019-03-10T12:18:06.643Z,1.67
2019-03-10T12:20:37.816Z,0.50
2019-03-10T12:23:12.992Z,0.70
2019-03-10T12:25:46.027Z,0.60
2019-03-10T12:28:15.716Z,0.53
2019-03-10T12:30:45.460Z,0.70
2019-03-10T12:33:15.187Z,0.70
2019-03-10T12:35:44.956Z,0.77
2019-03-10T12:38:23.738Z,0.50
2019-03-10T12:40:54.611Z,0.60
2019-03-10T12:43:24.149Z,0.60
2019-03-10T12:45:56.351Z,0.80
2019-03-10T12:48:27.188Z,1.30
2019-03-10T12:50:56.875Z,1.00
2019-03-10T12:53:32.511Z,0.97
2019-03-10T12:56:02.415Z,0.97
2019-03-10T12:58:32.096Z,0.80
2019-03-10T13:01:06.194Z,1.00
2019-03-10T13:03:33.301Z,0.80
2019-03-10T13:06:03.318Z,0.60
2019-03-10T13:08:33.164Z,0.80
2019-03-10T13:11:02.858Z,1.40
2019-03-10T13:13:32.548Z,0.60
2019-03-10T13:16:02.511Z,0.63
2019-03-10T13:18:32.378Z,0.80
2019-03-10T13:21:05.255Z,0.60
2019-03-10T13:23:53.163Z,0.50
2019-03-10T13:26:24.379Z,0.67
2019-03-10T13:28:53.588Z,0.77
2019-03-10T13:31:24.188Z,0.50
2019-03-10T13:33:54.153Z,0.53
2019-03-10T13:36:24.063Z,0.60
2019-03-10T13:38:54.053Z,0.80
2019-03-10T13:41:25.159Z,0.60
2019-03-10T13:43:55.883Z,0.50
2019-03-10T13:46:26.901Z,0.63
2019-03-10T13:48:58.177Z,0.53
2019-03-10T13:51:29.177Z,0.60
2019-03-10T13:53:59.903Z,0.50
2019-03-10T13:56:30.479Z,0.50
2019-03-10T13:59:00.233Z,0.50
2019-03-10T14:01:30.922Z,0.60
2019-03-10T14:04:02.792Z,0.80
2019-03-10T14:06:32.855Z,0.90
2019-03-10T14:09:06.463Z,0.90
2019-03-10T14:11:36.322Z,0.50
2019-03-10T14:14:06.275Z,0.60
2019-03-10T14:16:36.372Z,0.70
2019-03-10T14:19:07.108Z,0.50
2019-03-10T14:21:43.975Z,0.50
2019-03-10T14:24:14.676Z,0.60
2019-03-10T14:26:46.734Z,1.10
2019-03-10T14:29:18.462Z,0.50
2019-03-10T14:31:54.792Z,0.50
2019-03-10T14:34:24.821Z,0.70
2019-03-10T14:36:57.616Z,0.63
2019-03-10T14:39:29.648Z,0.50
2019-03-10T14:42:05.312Z,0.60
2019-03-10T14:44:37.716Z,0.60
2019-03-10T14:47:07.420Z,0.57
2019-03-10T14:49:47.183Z,1.17
2019-03-10T14:52:16.888Z,0.93
2019-03-10T14:54:46.612Z,1.00
2019-03-10T14:57:16.300Z,0.70
2019-03-10T14:59:51.743Z,0.80
2019-03-10T15:02:23.634Z,0.63
2019-03-10T15:04:53.768Z,0.80
2019-03-10T15:07:23.600Z,0.70
2019-03-10T15:09:53.572Z,1.00
2019-03-10T15:12:24.368Z,0.70
2019-03-10T15:14:54.409Z,0.73
2019-03-10T15:17:24.216Z,1.10
2019-03-10T15:19:55.097Z,1.00
2019-03-10T15:22:25.213Z,0.80
2019-03-10T15:24:57.007Z,1.20
2019-03-10T15:27:26.844Z,0.60
2019-03-10T15:29:56.612Z,0.77
2019-03-10T15:32:26.568Z,0.90
2019-03-10T15:35:02.516Z,0.80
2019-03-10T15:37:50.104Z,1.13
2019-03-10T15:40:21.695Z,0.77
2019-03-10T15:42:50.950Z,0.70
2019-03-10T15:45:20.893Z,0.60
2019-03-10T15:47:50.747Z,1.23
2019-03-10T15:50:30.669Z,1.07
2019-03-10T15:53:00.727Z,1.33
2019-03-10T15:55:31.520Z,1.50
2019-03-10T15:58:03.920Z,0.93
2019-03-10T16:00:35.096Z,0.80
2019-03-10T16:03:07.076Z,1.30
2019-03-10T16:05:36.554Z,1.10
2019-03-10T16:08:06.769Z,0.90
2019-03-10T16:10:36.482Z,0.90
2019-03-10T16:13:06.160Z,1.80
2019-03-10T16:15:36.132Z,1.20
2019-03-10T16:18:06.648Z,1.33
2019-03-10T16:20:36.496Z,1.30
2019-03-10T16:23:08.117Z,1.23
2019-03-10T16:25:37.945Z,0.87
2019-03-10T16:28:09.660Z,1.33
2019-03-10T16:30:39.343Z,1.13
2019-03-10T16:33:15.241Z,1.57
2019-03-10T16:35:46.020Z,1.40
2019-03-10T16:38:15.986Z,1.10
2019-03-10T16:40:46.118Z,1.17
2019-03-10T16:43:16.872Z,1.10
2019-03-10T16:45:46.838Z,1.47
2019-03-10T16:48:17.640Z,1.90
2019-03-10T16:50:47.344Z,1.80
2019-03-10T16:53:22.308Z,2.30
2019-03-10T16:56:02.391Z,2.00
2019-03-10T16:58:24.805Z,1.60
2019-03-10T17:00:54.829Z,1.50
2019-03-10T17:03:24.672Z,2.77
2019-03-10T17:05:54.456Z,2.40
2019-03-10T17:08:24.200Z,1.47
2019-03-10T17:10:54.228Z,1.80
2019-03-10T17:13:31.184Z,1.70
2019-03-10T17:16:00.872Z,1.40
2019-03-10T17:18:30.564Z,0.97
2019-03-10T17:21:00.556Z,1.37
2019-03-10T17:23:30.353Z,1.97
2019-03-10T17:26:00.981Z,1.10
2019-03-10T17:28:30.662Z,1.60
2019-03-10T17:31:02.610Z,1.63
2019-03-10T17:33:33.380Z,1.43
2019-03-10T17:36:04.412Z,1.93
2019-03-10T17:38:35.849Z,2.27
2019-03-10T17:41:07.792Z,2.00
2019-03-10T17:43:37.679Z,2.20
2019-03-10T17:46:07.680Z,1.27
2019-03-10T17:48:38.504Z,1.70
2019-03-10T17:51:08.520Z,1.60
2019-03-10T17:53:38.417Z,1.50
2019-03-10T17:56:09.324Z,1.13
2019-03-10T17:58:39.461Z,1.33
2019-03-10T18:01:27.400Z,1.47
2019-03-10T18:03:56.870Z,1.70
2019-03-10T18:06:28.104Z,0.93
2019-03-10T18:08:57.824Z,1.10
2019-03-10T18:11:28.516Z,0.90
2019-03-10T18:13:58.476Z,1.57
2019-03-10T18:16:28.540Z,1.30
2019-03-10T18:19:16.320Z,1.00
2019-03-10T18:21:45.888Z,1.33
2019-03-10T18:24:22.156Z,1.40
2019-03-10T18:26:52.848Z,2.70
2019-03-10T18:29:24.336Z,1.47
2019-03-10T18:31:55.170Z,1.77
2019-03-10T18:34:25.120Z,2.10
2019-03-10T18:37:00.976Z,1.50
2019-03-10T18:39:36.133Z,1.20
2019-03-10T18:42:05.980Z,1.87
2019-03-10T18:44:35.765Z,1.20
2019-03-10T18:47:05.813Z,1.17
2019-03-10T18:49:37.872Z,1.53
2019-03-10T18:52:07.745Z,1.60
2019-03-10T18:54:37.536Z,1.20
2019-03-10T18:57:09.465Z,1.60
2019-03-10T18:59:40.870Z,0.80
2019-03-10T19:02:11.204Z,1.07
2019-03-10T19:04:42.213Z,1.30
2019-03-10T19:07:12.368Z,1.53
2019-03-10T19:09:42.459Z,1.10
2019-03-10T19:12:13.276Z,1.00
2019-03-10T19:14:43.385Z,1.40
2019-03-10T19:17:13.464Z,1.40
2019-03-10T19:19:43.560Z,1.90
2019-03-10T19:22:13.662Z,1.10
2019-03-10T19:24:44.698Z,1.03
2019-03-10T19:27:16.760Z,1.60
2019-03-10T19:29:48.620Z,2.70
2019-03-10T19:32:19.561Z,1.17
2019-03-10T19:34:50.704Z,1.47
2019-03-10T19:37:22.794Z,1.37
2019-03-10T19:39:52.869Z,0.87
2019-03-10T19:42:25.780Z,3.07
2019-03-10T19:44:56.621Z,2.60
2019-03-10T19:47:26.727Z,1.90
2019-03-10T19:49:56.545Z,1.43
2019-03-10T19:52:29.188Z,2.77
2019-03-10T19:54:59.148Z,1.37
2019-03-10T19:57:29.244Z,1.00
2019-03-10T19:59:59.341Z,1.60
2019-03-10T20:02:29.687Z,1.97
2019-03-10T20:04:59.624Z,1.50
2019-03-10T20:07:29.320Z,1.10
2019-03-10T20:10:01.317Z,1.20
2019-03-10T20:12:32.318Z,0.97
2019-03-10T20:15:02.160Z,0.90
2019-03-10T20:17:33.849Z,1.03
2019-03-10T20:20:08.375Z,0.83
2019-03-10T20:22:38.204Z,1.60
2019-03-10T20:25:14.574Z,2.20
2019-03-10T20:27:45.812Z,2.10
2019-03-10T20:30:18.729Z,3.43
2019-03-10T20:32:49.585Z,1.50
2019-03-10T20:35:20.272Z,1.17
2019-03-10T20:38:08.692Z,0.93
2019-03-10T20:40:39.046Z,0.70
2019-03-10T20:43:08.537Z,0.93
2019-03-10T20:45:39.260Z,0.90
2019-03-10T20:48:14.934Z,1.03
2019-03-10T20:50:52.762Z,0.83
2019-03-10T20:53:24.452Z,0.70
2019-03-10T20:55:59.932Z,0.60
2019-03-10T20:58:30.570Z,0.50
2019-03-10T21:01:01.542Z,0.60
2019-03-10T21:03:31.600Z,0.60
2019-03-10T21:06:08.392Z,0.60
2019-03-10T21:08:39.140Z,0.50
2019-03-10T21:11:08.604Z,0.60
2019-03-10T21:13:38.126Z,0.50
2019-03-10T21:16:09.316Z,0.53
2019-03-10T21:18:39.978Z,0.50
2019-03-10T21:21:10.656Z,0.60
2019-03-10T21:23:40.324Z,0.60
2019-03-10T21:26:17.712Z,0.80
2019-03-10T21:28:51.416Z,1.30
2019-03-10T21:31:22.041Z,0.72
2019-03-10T21:33:55.844Z,0.90
2019-03-10T21:36:27.748Z,0.60
2019-03-10T21:38:59.900Z,0.62
2019-03-10T21:41:29.692Z,0.60
2019-03-10T21:43:59.501Z,0.62
2019-03-10T21:46:35.333Z,0.70
2019-03-10T21:49:11.452Z,0.60
2019-03-10T21:51:41.880Z,0.62
2019-03-10T21:54:12.836Z,0.82
2019-03-10T21:56:43.708Z,0.60
2019-03-10T21:59:13.714Z,0.80
2019-03-10T22:01:49.968Z,0.85
2019-03-10T22:04:20.762Z,0.80
2019-03-10T22:06:53.562Z,0.70
2019-03-10T22:09:25.738Z,1.00
2019-03-10T22:11:55.826Z,0.60
2019-03-10T22:14:28.638Z,0.80
2019-03-10T22:16:59.309Z,0.60
2019-03-10T22:19:30.205Z,0.80
2019-03-10T22:21:59.929Z,0.70
2019-03-10T22:24:29.950Z,0.90
2019-03-10T22:27:01.746Z,0.82
2019-03-10T22:29:31.460Z,0.60
2019-03-10T22:32:03.109Z,0.60
2019-03-10T22:34:32.881Z,0.65
2019-03-10T22:37:02.855Z,0.75
2019-03-10T22:39:34.920Z,0.70
2019-03-10T22:42:23.053Z,1.22
2019-03-10T22:44:53.189Z,0.50
2019-03-10T22:47:23.272Z,0.80
2019-03-10T22:49:54.904Z,0.50
2019-03-10T22:52:24.624Z,0.50
2019-03-10T22:54:54.316Z,0.60
2019-03-10T22:57:24.036Z,0.70
2019-03-10T22:59:53.769Z,0.60
2019-03-10T23:02:25.653Z,0.65
2019-03-10T23:04:56.460Z,0.60
2019-03-10T23:07:26.148Z,0.60
2019-03-10T23:09:56.836Z,0.60
2019-03-10T23:12:27.689Z,0.80
2019-03-10T23:14:57.745Z,0.50
2019-03-10T23:17:28.618Z,0.70
2019-03-10T23:20:05.584Z,0.60
2019-03-10T23:22:36.422Z,0.50
2019-03-10T23:25:07.576Z,0.50
2019-03-10T23:27:37.576Z,0.72
2019-03-10T23:30:18.933Z,0.53
2019-03-10T23:32:49.690Z,0.50
2019-03-10T23:35:19.792Z,0.50
2019-03-10T23:37:50.829Z,0.90
2019-03-10T23:40:20.684Z,0.90
2019-03-10T23:42:50.648Z,0.50
2019-03-10T23:45:24.664Z,0.70
2019-03-10T23:47:55.578Z,0.78
2019-03-10T23:50:25.444Z,0.90
2019-03-10T23:52:55.192Z,0.68
2019-03-10T23:55:26.096Z,0.90
2019-03-10T23:57:56.230Z,0.75
